Time;durP1;ratioP1;P1;durP2;ratioP2;P2;SDS_P1;SDS_P2;PMS_P1;PMS_P2;Temp;Humidity;BMP_temperature;BMP_pressure;BME280_temperature;BME280_humidity;BME280_pressure;Samples;Min_cycle;Max_cycle;Signal;HPM_P1;HPM_P2
2022/11/19 00:01:10;;;;;;;5.40;3.60;;;1.90;99.90;;;;;;5092081;28;20044;-75
2022/11/19 00:03:37;;;;;;;5.45;3.40;;;1.80;99.90;;;;;;5091606;28;20118;-75
2022/11/19 00:06:09;;;;;;;5.65;3.63;;;1.80;99.90;;;;;;5092246;28;20036;-75
2022/11/19 00:08:35;;;;;;;5.45;3.45;;;1.70;99.90;;;;;;5090700;28;20128;-75
2022/11/19 00:11:09;;;;;;;5.28;3.65;;;1.70;99.90;;;;;;5090927;28;20043;-75
2022/11/19 00:13:36;;;;;;;5.53;3.60;;;1.70;99.90;;;;;;5091331;28;20042;-75
2022/11/19 00:16:07;;;;;;;5.63;4.03;;;1.70;99.90;;;;;;5092099;28;20036;-75
2022/11/19 00:18:34;;;;;;;8.40;4.10;;;1.60;99.90;;;;;;5090470;28;20054;-75
2022/11/19 00:21:04;;;;;;;5.50;3.95;;;1.60;99.90;;;;;;5090570;28;20040;-75
2022/11/19 00:23:30;;;;;;;5.88;3.88;;;1.60;99.90;;;;;;5091415;28;20096;-75
2022/11/19 00:25:56;;;;;;;5.97;3.45;;;1.60;99.90;;;;;;5091359;28;20032;-75
2022/11/19 00:28:21;;;;;;;5.88;3.92;;;1.60;99.90;;;;;;5091906;28;20117;-75
2022/11/19 00:30:47;;;;;;;6.32;3.70;;;1.50;99.90;;;;;;5091694;28;20031;-75
2022/11/19 00:33:12;;;;;;;5.68;3.97;;;1.50;99.90;;;;;;5089981;28;20042;-75
2022/11/19 00:35:39;;;;;;;6.43;4.40;;;1.50;99.90;;;;;;5091642;28;20035;-75
2022/11/19 00:38:04;;;;;;;4.82;3.47;;;1.50;99.90;;;;;;5090207;28;20040;-75
2022/11/19 00:40:30;;;;;;;6.15;4.47;;;1.50;99.90;;;;;;5090139;28;20604;-75
2022/11/19 00:45:43;;;;;;;5.45;4.20;;;1.40;99.90;;;;;;5090374;28;20055;-75
2022/11/19 00:48:09;;;;;;;5.50;4.20;;;1.40;99.90;;;;;;5090226;28;20551;-75
2022/11/19 00:50:34;;;;;;;6.70;4.22;;;1.40;99.90;;;;;;5091125;28;20075;-75
2022/11/19 00:53:00;;;;;;;6.25;4.05;;;1.30;99.90;;;;;;5089738;28;20044;-75
2022/11/19 00:55:25;;;;;;;7.38;4.10;;;1.30;99.90;;;;;;5091319;28;20129;-75
2022/11/19 00:57:51;;;;;;;6.75;4.07;;;1.30;99.90;;;;;;5091650;28;20048;-75
2022/11/19 01:00:16;;;;;;;6.45;4.28;;;1.30;99.90;;;;;;5089169;28;20039;-75
2022/11/19 01:02:42;;;;;;;7.55;4.70;;;1.10;99.90;;;;;;5090562;28;20417;-75
2022/11/19 01:05:08;;;;;;;6.80;4.25;;;1.20;99.90;;;;;;5089726;28;20043;-75
2022/11/19 01:07:33;;;;;;;5.55;4.70;;;1.20;99.90;;;;;;5091139;28;20032;-75
2022/11/19 01:09:59;;;;;;;6.70;4.57;;;1.20;99.90;;;;;;5089917;28;20101;-75
2022/11/19 01:12:24;;;;;;;6.28;4.22;;;1.20;99.90;;;;;;5091130;28;20040;-75
2022/11/19 01:14:50;;;;;;;5.65;3.70;;;1.20;99.90;;;;;;5091375;28;20089;-75
2022/11/19 01:17:15;;;;;;;7.30;4.43;;;1.20;99.90;;;;;;5089900;28;20413;-75
2022/11/19 01:19:41;;;;;;;8.15;4.53;;;1.10;99.90;;;;;;5090206;28;20043;-76
2022/11/19 01:22:06;;;;;;;4.47;3.83;;;1.10;99.90;;;;;;5089762;28;20036;-74
2022/11/19 01:24:32;;;;;;;6.38;4.13;;;1.20;99.90;;;;;;5089609;28;20448;-75
2022/11/19 01:26:57;;;;;;;6.78;4.50;;;1.20;99.90;;;;;;5089913;28;20039;-75
2022/11/19 01:29:23;;;;;;;6.40;4.60;;;1.10;99.90;;;;;;5089868;28;20516;-75
2022/11/19 01:31:48;;;;;;;8.55;5.00;;;1.10;99.90;;;;;;5089793;28;20036;-75
2022/11/19 01:34:14;;;;;;;6.78;4.18;;;1.10;99.90;;;;;;5089557;28;20067;-76
2022/11/19 01:36:39;;;;;;;6.63;4.50;;;1.10;99.90;;;;;;5089748;28;20070;-75
2022/11/19 01:39:05;;;;;;;7.35;4.95;;;1.10;99.90;;;;;;5093449;28;20128;-75
2022/11/19 01:41:32;;;;;;;7.30;4.05;;;1.10;99.90;;;;;;5076563;28;20046;-75
2022/11/19 01:43:59;;;;;;;7.38;5.32;;;1.10;99.90;;;;;;5093366;28;20089;-75
2022/11/19 01:46:28;;;;;;;5.82;4.15;;;1.10;99.90;;;;;;5093658;28;20123;-74
2022/11/19 01:49:07;;;;;;;6.57;4.38;;;1.10;99.90;;;;;;5093675;28;20059;-75
2022/11/19 01:51:40;;;;;;;9.55;4.55;;;1.10;99.90;;;;;;5076389;28;20086;-75
2022/11/19 01:54:16;;;;;;;7.65;4.38;;;1.00;99.90;;;;;;5094315;28;20439;-75
2022/11/19 01:56:42;;;;;;;7.35;4.85;;;1.10;99.90;;;;;;5093288;28;20048;-75
2022/11/19 01:59:16;;;;;;;5.78;3.92;;;1.10;99.90;;;;;;5093238;28;20390;-75
2022/11/19 02:01:43;;;;;;;7.97;4.20;;;1.00;99.90;;;;;;5092888;28;20040;-75
2022/11/19 02:04:10;;;;;;;6.47;4.50;;;1.00;99.90;;;;;;5094301;28;20044;-75
2022/11/19 02:06:36;;;;;;;7.55;4.57;;;1.00;99.90;;;;;;5094380;28;20434;-75
2022/11/19 02:09:02;;;;;;;6.78;4.20;;;0.90;99.90;;;;;;5092941;28;20058;-75
2022/11/19 02:11:43;;;;;;;6.35;4.43;;;0.80;99.90;;;;;;5092999;28;20051;-75
2022/11/19 02:14:31;;;;;;;8.23;5.20;;;0.90;99.90;;;;;;5092862;28;20040;-75
2022/11/19 02:17:08;;;;;;;6.93;4.53;;;0.80;99.90;;;;;;5093153;28;20058;-74
2022/11/19 02:19:55;;;;;;;6.10;4.38;;;0.80;99.90;;;;;;5093220;28;20043;-75
2022/11/19 02:22:54;;;;;;;6.90;4.35;;;0.80;99.90;;;;;;5092550;28;20044;-75
2022/11/19 02:25:38;;;;;;;6.85;4.25;;;0.70;99.90;;;;;;5092698;28;20040;-74
2022/11/19 02:28:30;;;;;;;7.22;4.65;;;0.70;99.90;;;;;;5093004;28;20136;-75
2022/11/19 02:31:10;;;;;;;7.32;5.18;;;0.70;99.90;;;;;;5092714;28;20068;-75
2022/11/19 02:34:04;;;;;;;5.57;3.88;;;0.70;99.90;;;;;;5093521;28;20040;-75
2022/11/19 02:36:59;;;;;;;5.93;4.28;;;0.60;99.90;;;;;;5093829;28;20490;-75
2022/11/19 02:39:47;;;;;;;7.45;4.47;;;0.60;99.90;;;;;;5092684;28;20504;-75
2022/11/19 02:42:32;;;;;;;7.72;4.85;;;0.50;99.90;;;;;;5092228;28;20517;-74
2022/11/19 02:45:07;;;;;;;6.65;4.72;;;0.50;99.90;;;;;;5092129;28;20044;-75
2022/11/19 02:47:39;;;;;;;7.20;4.85;;;0.50;99.90;;;;;;5092190;28;20457;-75
2022/11/19 02:50:19;;;;;;;7.15;5.07;;;0.50;99.90;;;;;;5093729;28;20040;-74
2022/11/19 02:52:46;;;;;;;6.13;4.50;;;0.50;99.90;;;;;;5091793;28;20134;-75
2022/11/19 02:55:18;;;;;;;7.32;5.38;;;0.50;99.90;;;;;;5092040;28;20044;-75
2022/11/19 02:57:50;;;;;;;8.23;5.10;;;0.40;99.90;;;;;;5092148;28;20043;-75
2022/11/19 03:06:10;;;;;;;5.97;4.57;;;0.40;99.90;;;;;;5093246;28;20083;-75
2022/11/19 03:08:36;;;;;;;6.88;4.32;;;0.40;99.90;;;;;;5091882;28;20039;-75
2022/11/19 03:11:10;;;;;;;6.70;4.72;;;0.40;99.90;;;;;;5092007;28;20550;-75
2022/11/19 03:16:40;;;;;;;7.38;4.68;;;0.30;99.90;;;;;;5091651;28;20497;-75
2022/11/19 03:19:10;;;;;;;6.70;4.95;;;0.30;99.90;;;;;;5091585;28;20516;-74
2022/11/19 03:21:44;;;;;;;6.50;5.10;;;0.30;99.90;;;;;;5091497;28;20118;-75
2022/11/19 03:24:51;;;;;;;6.90;4.60;;;0.30;99.90;;;;;;5074389;28;20654;-75
2022/11/19 03:27:26;;;;;;;6.57;4.90;;;0.20;99.90;;;;;;5013868;28;20045;-76
2022/11/19 03:29:55;;;;;;;7.05;4.82;;;0.30;99.90;;;;;;5083255;28;20052;-75
2022/11/19 03:32:26;;;;;;;7.53;4.63;;;0.30;99.90;;;;;;5091005;28;20055;-75
2022/11/19 03:34:58;;;;;;;6.90;4.78;;;0.30;99.90;;;;;;5091591;28;20114;-75
2022/11/19 03:37:25;;;;;;;6.60;4.22;;;0.30;99.90;;;;;;5091186;28;20409;-74
2022/11/19 03:39:55;;;;;;;7.88;5.13;;;0.30;99.90;;;;;;5091197;28;20097;-74
2022/11/19 03:42:22;;;;;;;8.77;5.70;;;0.20;99.90;;;;;;5091023;28;20047;-75
2022/11/19 03:44:50;;;;;;;9.98;4.95;;;0.20;99.90;;;;;;5092514;28;20401;-74
2022/11/19 03:47:28;;;;;;;7.45;4.90;;;0.30;99.90;;;;;;5091133;28;20040;-74
2022/11/19 03:50:04;;;;;;;5.95;4.32;;;0.10;99.90;;;;;;5091108;28;20044;-76
2022/11/19 03:52:30;;;;;;;6.35;4.15;;;0.20;99.90;;;;;;5090845;28;20129;-75
2022/11/19 03:54:56;;;;;;;7.85;5.13;;;0.20;99.90;;;;;;5091267;28;20474;-74
2022/11/19 03:57:23;;;;;;;5.75;4.30;;;0.20;99.90;;;;;;5092239;28;20079;-74
2022/11/19 03:59:49;;;;;;;6.90;4.35;;;0.20;99.90;;;;;;5091766;28;20067;-74
2022/11/19 04:02:15;;;;;;;8.70;4.50;;;0.20;99.90;;;;;;5091763;28;20071;-75
2022/11/19 04:04:41;;;;;;;8.05;4.82;;;0.10;99.90;;;;;;5091701;28;20100;-74
2022/11/19 04:07:18;;;;;;;7.78;5.05;;;0.10;99.90;;;;;;5090989;28;20435;-75
2022/11/19 04:09:44;;;;;;;7.38;5.05;;;0.10;99.90;;;;;;5090723;28;20040;-74
2022/11/19 04:12:17;;;;;;;7.10;4.32;;;0.10;99.90;;;;;;5090587;28;20555;-75
2022/11/19 04:14:43;;;;;;;9.02;5.63;;;0.00;99.90;;;;;;5090584;28;20043;-74
2022/11/19 04:17:09;;;;;;;7.55;4.82;;;0.10;99.90;;;;;;5090508;28;20074;-74
2022/11/19 04:19:35;;;;;;;7.55;4.80;;;0.10;99.90;;;;;;5090531;28;20067;-75
2022/11/19 04:22:01;;;;;;;6.97;4.35;;;0.10;99.90;;;;;;5090296;28;20136;-75
2022/11/19 04:24:26;;;;;;;7.05;4.50;;;0.10;99.90;;;;;;5090326;28;20036;-75
2022/11/19 04:26:52;;;;;;;9.20;4.63;;;0.00;99.90;;;;;;5091653;28;20040;-75
2022/11/19 04:29:17;;;;;;;8.40;5.07;;;0.00;99.90;;;;;;5090432;28;20036;-74
2022/11/19 04:31:43;;;;;;;7.38;4.93;;;0.00;99.90;;;;;;5090336;28;20097;-75
2022/11/19 04:34:08;;;;;;;6.18;4.38;;;0.00;99.90;;;;;;5090353;28;20093;-74
2022/11/19 04:36:34;;;;;;;11.32;6.57;;;0.00;99.90;;;;;;5090361;28;20051;-75
2022/11/19 04:39:00;;;;;;;8.05;5.32;;;-0.10;99.90;;;;;;5090581;28;20050;-75
2022/11/19 04:41:26;;;;;;;7.20;4.95;;;-0.10;99.90;;;;;;5091551;28;20473;-75
2022/11/19 04:43:52;;;;;;;7.90;4.53;;;-0.10;99.90;;;;;;5089919;28;20051;-74
2022/11/19 04:46:17;;;;;;;7.28;4.63;;;-0.10;99.90;;;;;;5090417;28;20036;-75
2022/11/19 04:48:42;;;;;;;7.03;4.82;;;0.00;99.90;;;;;;5090167;28;20493;-75
2022/11/19 04:51:08;;;;;;;7.03;4.60;;;-0.10;99.90;;;;;;5090167;28;20036;-75
2022/11/19 04:53:34;;;;;;;6.60;4.30;;;-0.10;99.90;;;;;;5089789;28;20039;-74
2022/11/19 04:55:59;;;;;;;8.30;5.00;;;-0.10;99.90;;;;;;5091523;28;20059;-74
2022/11/19 04:58:25;;;;;;;7.07;5.05;;;-0.10;99.90;;;;;;5079674;28;20040;-75
2022/11/19 05:00:50;;;;;;;6.50;4.20;;;-0.10;99.90;;;;;;5068665;28;20079;-75
2022/11/19 05:03:16;;;;;;;6.68;4.50;;;-0.10;99.90;;;;;;5070020;28;20460;-74
2022/11/19 05:05:41;;;;;;;7.28;4.88;;;-0.10;99.90;;;;;;5069545;28;20438;-75
2022/11/19 05:08:07;;;;;;;9.93;5.93;;;-0.20;99.90;;;;;;5070809;28;20110;-74
2022/11/19 05:10:32;;;;;;;10.23;6.22;;;-0.10;99.90;;;;;;5071129;28;20032;-75
2022/11/19 05:12:58;;;;;;;7.63;5.32;;;-0.20;99.90;;;;;;5071889;28;20045;-74
2022/11/19 05:15:23;;;;;;;9.02;6.35;;;0.00;99.90;;;;;;5073641;28;20094;-74
2022/11/19 05:17:49;;;;;;;8.05;5.32;;;-0.20;99.90;;;;;;5073566;28;20047;-75
2022/11/19 05:20:15;;;;;;;7.78;4.90;;;-0.20;99.90;;;;;;5075003;28;20123;-76
2022/11/19 05:22:40;;;;;;;8.05;5.43;;;-0.20;99.90;;;;;;5074476;28;20032;-74
2022/11/19 05:25:06;;;;;;;8.82;5.25;;;-0.30;99.90;;;;;;5074703;28;20682;-75
2022/11/19 05:27:32;;;;;;;10.00;5.55;;;-0.30;99.90;;;;;;5073537;28;20107;-75
2022/11/19 05:29:57;;;;;;;10.73;4.90;;;-0.30;99.90;;;;;;5073185;28;20036;-75
2022/11/19 05:32:23;;;;;;;9.05;5.45;;;-0.30;99.90;;;;;;5056586;28;20049;-76
2022/11/19 05:34:48;;;;;;;10.15;5.70;;;-0.30;99.90;;;;;;5056548;28;20047;-75
2022/11/19 05:37:14;;;;;;;8.50;6.07;;;-0.30;99.90;;;;;;5074616;28;20051;-75
2022/11/19 05:39:40;;;;;;;7.47;5.10;;;-0.30;99.90;;;;;;5074411;28;20054;-74
2022/11/19 05:42:05;;;;;;;9.35;5.28;;;-0.40;99.90;;;;;;5073119;28;20098;-75
2022/11/19 05:44:31;;;;;;;8.73;5.00;;;-0.40;99.90;;;;;;5074007;28;20041;-75
2022/11/19 05:46:58;;;;;;;11.02;5.95;;;-0.40;99.90;;;;;;5073405;28;20494;-75
2022/11/19 05:49:24;;;;;;;9.52;5.10;;;-0.40;99.90;;;;;;5056648;28;20075;-75
2022/11/19 05:51:50;;;;;;;9.00;5.35;;;-0.30;99.90;;;;;;5073083;28;20041;-75
2022/11/19 05:54:15;;;;;;;8.75;5.38;;;-0.30;99.90;;;;;;5072748;28;20037;-75
2022/11/19 05:56:41;;;;;;;8.07;5.25;;;-0.40;99.90;;;;;;5074169;28;20056;-75
2022/11/19 05:59:06;;;;;;;8.13;4.85;;;-0.40;99.90;;;;;;5074208;28;20040;-73
2022/11/19 06:01:32;;;;;;;8.95;5.80;;;-0.40;99.90;;;;;;5073886;28;20036;-75
2022/11/19 06:03:58;;;;;;;7.50;5.20;;;-0.40;99.90;;;;;;5072330;28;20047;-75
2022/11/19 06:06:24;;;;;;;7.60;5.15;;;-0.40;99.90;;;;;;5074006;28;20039;-75
2022/11/19 06:08:50;;;;;;;10.60;5.65;;;-0.40;99.90;;;;;;5072593;28;20048;-75
2022/11/19 06:14:00;;;;;;;8.40;5.10;;;-0.50;99.90;;;;;;5072585;28;20044;-75
2022/11/19 06:16:26;;;;;;;10.73;5.47;;;-0.50;99.90;;;;;;5073801;28;20033;-75
2022/11/19 06:18:52;;;;;;;8.80;5.82;;;-0.50;99.90;;;;;;5073759;28;20123;-75
2022/11/19 06:21:18;;;;;;;8.05;5.60;;;-0.50;99.90;;;;;;5073890;28;20036;-75
2022/11/19 06:23:43;;;;;;;9.13;6.20;;;-0.50;99.90;;;;;;5055335;28;20031;-75
2022/11/19 06:26:09;;;;;;;9.35;5.30;;;-0.50;99.90;;;;;;5072544;28;20032;-75
2022/11/19 06:28:35;;;;;;;9.65;5.75;;;-0.50;99.90;;;;;;5072289;28;20044;-74
2022/11/19 06:31:01;;;;;;;8.88;5.35;;;-0.50;99.90;;;;;;5073659;28;20098;-75
2022/11/19 06:33:26;;;;;;;6.75;4.78;;;-0.50;99.90;;;;;;5055448;28;20040;-74
2022/11/19 06:35:52;;;;;;;8.45;5.57;;;-0.50;99.90;;;;;;5072456;28;20525;-75
2022/11/19 06:38:17;;;;;;;8.65;6.75;;;-0.50;99.90;;;;;;5072100;28;20070;-74
2022/11/19 06:40:46;;;;;;;6.72;4.60;;;-0.40;99.90;;;;;;5072096;28;20070;-74
2022/11/19 06:43:12;;;;;;;8.77;5.68;;;-0.40;99.90;;;;;;5055087;28;20040;-75
2022/11/19 06:45:37;;;;;;;8.27;6.13;;;-0.40;99.90;;;;;;5055513;28;20074;-75
2022/11/19 06:48:03;;;;;;;9.13;5.43;;;-0.50;99.90;;;;;;5055444;28;20051;-75
2022/11/19 06:50:29;;;;;;;7.45;5.13;;;-0.50;99.90;;;;;;5072007;28;20033;-74
2022/11/19 06:52:55;;;;;;;9.70;5.47;;;-0.50;99.90;;;;;;5071570;28;20044;-75
2022/11/19 06:55:21;;;;;;;8.25;5.45;;;-0.50;99.90;;;;;;5071969;28;20041;-75
2022/11/19 06:57:46;;;;;;;9.50;6.28;;;-0.50;99.90;;;;;;5072082;28;20051;-75
2022/11/19 07:00:12;;;;;;;9.00;5.53;;;-0.50;99.90;;;;;;5071803;28;20177;-74
2022/11/19 07:02:38;;;;;;;9.75;6.15;;;-0.50;99.90;;;;;;5071377;28;20055;-74
2022/11/19 07:05:04;;;;;;;7.97;5.65;;;-0.50;99.90;;;;;;5071721;28;20401;-74
2022/11/19 07:07:30;;;;;;;10.65;6.22;;;-0.50;99.90;;;;;;5071630;28;20037;-75
2022/11/19 07:09:56;;;;;;;9.00;5.55;;;-0.50;99.90;;;;;;5054875;28;20127;-74
2022/11/19 07:12:21;;;;;;;9.25;6.65;;;-0.50;99.90;;;;;;5072385;28;20067;-76
2022/11/19 07:14:47;;;;;;;8.35;6.38;;;-0.50;99.90;;;;;;5072730;28;20401;-75
2022/11/19 07:17:13;;;;;;;9.55;5.78;;;-0.50;99.90;;;;;;5071529;28;20044;-75
2022/11/19 07:19:38;;;;;;;7.43;5.13;;;-0.50;99.90;;;;;;5071560;28;20383;-75
2022/11/19 07:22:04;;;;;;;8.13;5.90;;;-0.50;99.90;;;;;;5071465;28;20463;-74
2022/11/19 07:24:29;;;;;;;10.07;6.72;;;-0.50;99.90;;;;;;5071105;28;20395;-75
2022/11/19 07:26:55;;;;;;;9.27;6.10;;;-0.50;99.90;;;;;;5071490;28;20051;-75
2022/11/19 07:29:20;;;;;;;8.68;5.80;;;-0.50;99.90;;;;;;5071486;28;20142;-74
2022/11/19 07:31:49;;;;;;;9.05;6.65;;;-0.50;99.90;;;;;;5070872;28;20127;-75
2022/11/19 07:34:15;;;;;;;9.38;6.03;;;-0.40;99.90;;;;;;5070692;28;20135;-75
2022/11/19 07:36:41;;;;;;;8.70;6.05;;;-0.40;99.90;;;;;;5070744;28;20418;-74
2022/11/19 07:39:07;;;;;;;9.75;6.65;;;-0.50;99.90;;;;;;5071937;28;20044;-74
2022/11/19 07:44:17;;;;;;;10.07;6.38;;;-0.40;99.90;;;;;;5070216;28;20106;-74
2022/11/19 07:46:43;;;;;;;10.80;7.32;;;-0.50;99.90;;;;;;5070709;28;20041;-73
2022/11/19 07:49:08;;;;;;;12.75;7.05;;;-0.40;99.90;;;;;;5070806;28;20063;-75
2022/11/19 07:51:34;;;;;;;8.93;6.05;;;-0.30;99.90;;;;;;5070601;28;20041;-74
2022/11/19 07:53:59;;;;;;;8.80;5.85;;;-0.20;99.90;;;;;;5070248;28;20055;-74
2022/11/19 07:56:25;;;;;;;9.38;6.25;;;-0.10;99.90;;;;;;5054068;28;20147;-74
2022/11/19 07:58:50;;;;;;;9.48;5.90;;;0.00;99.90;;;;;;5072055;28;20044;-75
2022/11/19 08:01:22;;;;;;;9.55;6.82;;;0.10;99.90;;;;;;5071951;28;20123;-75
2022/11/19 08:03:49;;;;;;;9.32;6.50;;;0.10;99.90;;;;;;5071648;28;20044;-74
2022/11/19 08:06:16;;;;;;;10.13;6.88;;;0.20;99.90;;;;;;5071754;28;20115;-75
2022/11/19 08:08:43;;;;;;;9.80;7.13;;;0.20;99.90;;;;;;5056014;28;20029;-74
2022/11/19 08:11:10;;;;;;;10.63;7.18;;;0.10;99.90;;;;;;5083403;28;20043;-76
2022/11/19 08:13:36;;;;;;;10.35;6.75;;;0.10;99.90;;;;;;5090350;28;20040;-74
2022/11/19 08:16:04;;;;;;;12.23;7.80;;;0.10;99.90;;;;;;5090667;28;20044;-75
2022/11/19 08:18:30;;;;;;;11.75;7.93;;;0.10;99.90;;;;;;5090699;28;20036;-75
2022/11/19 08:21:05;;;;;;;13.25;7.53;;;0.10;99.90;;;;;;5090610;28;20051;-75
2022/11/19 08:23:32;;;;;;;13.25;7.30;;;0.10;99.90;;;;;;5090624;28;20119;-74
2022/11/19 08:25:57;;;;;;;9.70;6.82;;;0.10;99.90;;;;;;5090560;28;20044;-75
2022/11/19 08:28:23;;;;;;;12.05;7.93;;;0.20;99.90;;;;;;5090535;28;20044;-74
2022/11/19 08:30:49;;;;;;;10.05;7.28;;;0.10;99.90;;;;;;5090518;28;20032;-76
2022/11/19 08:33:14;;;;;;;12.10;7.60;;;0.10;99.90;;;;;;5090276;28;20039;-75
2022/11/19 08:35:40;;;;;;;10.10;6.97;;;0.10;99.90;;;;;;5091622;28;20040;-75
2022/11/19 08:38:05;;;;;;;15.00;7.57;;;0.10;99.90;;;;;;5091913;28;20115;-75
2022/11/19 08:40:31;;;;;;;11.48;7.82;;;0.10;99.90;;;;;;5091877;28;20062;-75
2022/11/19 08:42:59;;;;;;;11.05;6.95;;;0.10;99.90;;;;;;5090366;28;20441;-74
2022/11/19 08:45:34;;;;;;;9.13;7.35;;;0.10;99.90;;;;;;5090811;28;20078;-74
2022/11/19 08:48:03;;;;;;;11.55;7.80;;;0.00;99.90;;;;;;5098962;28;20067;-74
2022/11/19 08:50:30;;;;;;;11.57;7.38;;;0.00;99.90;;;;;;5099159;28;20051;-74
2022/11/19 08:53:02;;;;;;;12.60;7.65;;;0.00;99.90;;;;;;5090660;28;20039;-74
2022/11/19 08:55:29;;;;;;;10.05;6.72;;;0.10;99.90;;;;;;5090131;28;20056;-74
2022/11/19 08:58:03;;;;;;;13.18;7.38;;;0.10;99.90;;;;;;5098292;28;20482;-74
2022/11/19 09:00:30;;;;;;;10.50;6.80;;;0.20;99.90;;;;;;5096839;28;20225;-74
2022/11/19 09:02:56;;;;;;;9.98;7.32;;;0.20;99.90;;;;;;5096534;28;20489;-75
2022/11/19 09:05:22;;;;;;;10.13;7.47;;;0.20;99.90;;;;;;5096850;28;20047;-74
2022/11/19 09:07:47;;;;;;;9.50;6.75;;;0.30;99.90;;;;;;5091743;28;20111;-74
2022/11/19 09:10:13;;;;;;;10.52;7.05;;;0.40;99.90;;;;;;5082134;28;20113;-75
2022/11/19 09:12:39;;;;;;;9.23;6.88;;;0.40;99.90;;;;;;5076178;28;20036;-74
2022/11/19 09:15:05;;;;;;;9.80;7.47;;;0.40;99.90;;;;;;5077771;28;20121;-75
2022/11/19 09:17:31;;;;;;;11.68;7.13;;;0.40;99.90;;;;;;5078037;28;20123;-74
2022/11/19 09:19:57;;;;;;;9.85;6.85;;;0.50;99.90;;;;;;5076559;28;20120;-75
2022/11/19 09:22:22;;;;;;;11.73;7.13;;;0.50;99.60;;;;;;5076258;28;20170;-74
2022/11/19 09:24:48;;;;;;;12.98;7.63;;;0.60;99.70;;;;;;5076511;28;20040;-74
2022/11/19 09:27:14;;;;;;;10.75;7.32;;;0.60;99.60;;;;;;5076490;28;20414;-74
2022/11/19 09:29:39;;;;;;;12.30;6.85;;;0.70;99.50;;;;;;5076504;28;20039;-75
2022/11/19 09:32:05;;;;;;;10.50;7.53;;;0.60;99.20;;;;;;5076355;28;20119;-74
2022/11/19 09:34:30;;;;;;;11.18;6.68;;;0.70;99.10;;;;;;5076101;28;20127;-74
2022/11/19 09:36:57;;;;;;;11.43;7.55;;;0.70;99.00;;;;;;5076298;28;20414;-74
2022/11/19 09:39:23;;;;;;;9.82;7.03;;;0.80;99.20;;;;;;5076422;28;20047;-76
2022/11/19 09:42:12;;;;;;;17.00;8.45;;;0.80;99.30;;;;;;5076243;28;20156;-74
2022/11/19 09:45:02;;;;;;;10.30;6.53;;;0.80;98.80;;;;;;5076103;28;20044;-75
2022/11/19 09:48:04;;;;;;;8.25;6.03;;;0.90;99.10;;;;;;5076186;28;20039;-74
2022/11/19 09:51:01;;;;;;;10.27;6.03;;;0.90;98.70;;;;;;5025652;28;20055;-74
2022/11/19 09:53:33;;;;;;;8.95;6.28;;;0.90;98.60;;;;;;5077643;28;20085;-74
2022/11/19 09:55:59;;;;;;;8.35;6.15;;;0.90;98.40;;;;;;5086226;28;20044;-74
2022/11/19 09:58:40;;;;;;;9.27;6.35;;;1.00;98.50;;;;;;5082416;28;20147;-75
2022/11/19 10:01:09;;;;;;;12.85;7.38;;;1.00;98.40;;;;;;5081432;28;20036;-75
2022/11/19 10:03:39;;;;;;;10.15;6.28;;;1.00;98.70;;;;;;5074352;28;20111;-74
2022/11/19 10:06:14;;;;;;;9.65;6.75;;;1.00;98.50;;;;;;5073094;28;20490;-74
2022/11/19 10:09:08;;;;;;;14.13;7.05;;;1.10;98.80;;;;;;5073038;28;20042;-75
2022/11/19 10:11:46;;;;;;;;;;;1.10;98.50;;;;;;5056450;28;20127;-74
2022/11/19 10:14:39;;;;;;;8.98;6.72;;;1.10;98.60;;;;;;5072409;28;20306;-75
2022/11/19 10:17:31;;;;;;;8.80;6.75;;;1.10;98.50;;;;;;5072796;28;20044;-74
2022/11/19 10:20:07;;;;;;;9.63;6.35;;;1.20;98.40;;;;;;5075094;28;20406;-75
2022/11/19 10:23:07;;;;;;;10.00;6.63;;;1.20;98.10;;;;;;5090879;28;20048;-74
2022/11/19 10:25:41;;;;;;;9.48;6.95;;;1.30;98.10;;;;;;5092564;28;20047;-74
2022/11/19 10:28:19;;;;;;;7.63;6.07;;;1.30;98.10;;;;;;5075884;28;20119;-74
2022/11/19 10:30:54;;;;;;;11.38;7.05;;;1.30;97.80;;;;;;5093126;28;20085;-74
2022/11/19 10:33:32;;;;;;;16.90;6.30;;;1.30;98.00;;;;;;5092156;28;20562;-75
2022/11/19 10:36:09;;;;;;;8.38;5.93;;;1.30;98.10;;;;;;5092224;28;20045;-75
2022/11/19 10:39:12;;;;;;;8.43;6.15;;;1.30;98.20;;;;;;5083305;28;20067;-74
2022/11/19 10:41:52;;;;;;;10.20;6.00;;;1.40;98.00;;;;;;5090863;28;20089;-74
2022/11/19 10:44:48;;;;;;;8.75;5.90;;;1.40;98.00;;;;;;5089292;28;20040;-75
2022/11/19 10:47:33;;;;;;;8.50;5.70;;;1.40;98.20;;;;;;5080526;28;20048;-75
2022/11/19 10:49:59;;;;;;;8.20;5.00;;;1.50;97.90;;;;;;5073033;28;20040;-74
2022/11/19 10:52:39;;;;;;;9.48;6.38;;;1.50;97.80;;;;;;5072463;28;20032;-75
2022/11/19 10:55:22;;;;;;;9.07;5.78;;;1.60;98.00;;;;;;5055535;28;20041;-75
2022/11/19 10:57:50;;;;;;;11.43;5.68;;;1.60;98.10;;;;;;5072229;28;20044;-75
2022/11/19 11:00:16;;;;;;;8.30;5.85;;;1.60;97.90;;;;;;5055469;28;20044;-73
2022/11/19 11:02:46;;;;;;;9.60;5.75;;;1.70;97.90;;;;;;5071998;28;20182;-74
2022/11/19 11:05:15;;;;;;;8.30;5.53;;;1.70;97.80;;;;;;5072003;28;20118;-74
2022/11/19 11:07:52;;;;;;;9.57;6.38;;;1.70;98.00;;;;;;5071644;28;20037;-74
2022/11/19 11:10:27;;;;;;;8.52;5.55;;;1.80;97.90;;;;;;5070600;28;20123;-75
2022/11/19 11:15:49;;;;;;;10.63;5.90;;;1.80;98.00;;;;;;5071854;28;20048;-74
2022/11/19 11:18:16;;;;;;;8.45;5.18;;;1.90;98.00;;;;;;5071819;28;20421;-74
2022/11/19 11:20:50;;;;;;;10.10;5.30;;;1.90;98.00;;;;;;5071454;28;20127;-75
2022/11/19 11:23:15;;;;;;;8.10;5.38;;;2.00;98.10;;;;;;5071065;28;20044;-75
2022/11/19 11:25:55;;;;;;;8.30;5.88;;;2.00;98.20;;;;;;5054600;28;20409;-75
2022/11/19 11:28:22;;;;;;;8.93;5.40;;;2.10;98.20;;;;;;5054645;28;20033;-74
2022/11/19 11:30:56;;;;;;;7.55;5.70;;;2.10;98.40;;;;;;5071202;28;20044;-75
2022/11/19 11:33:26;;;;;;;7.47;5.60;;;2.20;98.30;;;;;;5070977;28;20037;-74
2022/11/19 11:36:03;;;;;;;8.60;5.25;;;2.20;98.20;;;;;;5071435;28;20127;-74
2022/11/19 11:38:29;;;;;;;8.55;5.00;;;2.30;98.40;;;;;;5071125;28;20036;-74
2022/11/19 11:41:04;;;;;;;7.70;5.03;;;2.30;98.40;;;;;;5071004;28;20043;-74
2022/11/19 11:43:32;;;;;;;8.20;5.07;;;2.30;98.30;;;;;;5070685;28;20049;-75
2022/11/19 11:46:01;;;;;;;9.88;6.20;;;2.30;98.40;;;;;;5070936;28;20037;-74
2022/11/19 11:48:33;;;;;;;9.02;6.05;;;2.40;98.70;;;;;;5071044;28;20120;-74
2022/11/19 11:50:59;;;;;;;7.43;5.30;;;2.40;98.70;;;;;;5071349;28;20305;-74
2022/11/19 11:53:31;;;;;;;6.97;4.68;;;2.40;98.40;;;;;;5053870;28;20510;-74
2022/11/19 11:55:59;;;;;;;10.10;5.43;;;2.50;98.40;;;;;;5070787;28;20571;-74
2022/11/19 11:58:29;;;;;;;8.45;4.97;;;2.50;98.60;;;;;;5070851;28;20045;-74
2022/11/19 12:01:13;;;;;;;6.15;4.70;;;2.50;98.70;;;;;;5071097;28;20109;-73
2022/11/19 12:03:52;;;;;;;;;;;2.60;98.70;;;;;;5070676;28;20506;-74
2022/11/19 12:06:21;;;;;;;5.35;4.45;;;2.60;98.70;;;;;;5070761;28;20408;-75
2022/11/19 12:09:28;;;;;;;7.20;4.70;;;2.60;98.80;;;;;;5054024;28;20028;-74
2022/11/19 12:12:07;;;;;;;12.77;5.07;;;2.60;98.90;;;;;;5078865;28;20040;-75
2022/11/19 12:14:38;;;;;;;8.73;4.97;;;2.70;99.00;;;;;;5090868;28;20043;-73
2022/11/19 12:17:29;;;;;;;5.78;4.30;;;2.70;99.10;;;;;;5090904;28;20044;-75
2022/11/19 12:20:19;;;;;;;6.22;4.90;;;2.70;99.20;;;;;;5091014;28;20048;-74
2022/11/19 12:22:54;;;;;;;6.60;4.97;;;2.70;99.50;;;;;;5053240;28;20094;-74
2022/11/19 12:25:55;;;;;;;6.95;4.72;;;2.80;99.60;;;;;;5090644;28;20093;-75
2022/11/19 12:28:35;;;;;;;7.32;4.55;;;2.90;99.60;;;;;;5090650;28;20032;-74
2022/11/19 12:31:11;;;;;;;7.97;4.57;;;2.90;99.40;;;;;;5090522;28;20079;-74
2022/11/19 12:34:00;;;;;;;5.53;4.57;;;2.90;99.40;;;;;;5090219;28;20519;-74
2022/11/19 12:36:51;;;;;;;7.25;4.15;;;2.90;99.50;;;;;;5091884;28;20117;-74
2022/11/19 12:39:35;;;;;;;6.68;4.05;;;3.00;99.30;;;;;;5091626;28;20050;-74
2022/11/19 12:42:10;;;;;;;6.50;4.47;;;3.00;99.40;;;;;;5090593;28;20497;-75
2022/11/19 12:44:48;;;;;;;6.85;4.40;;;3.00;99.70;;;;;;5090097;28;20048;-75
2022/11/19 12:47:31;;;;;;;7.18;4.30;;;3.00;99.70;;;;;;5090474;28;20063;-75
2022/11/19 12:49:59;;;;;;;6.35;4.03;;;3.10;99.70;;;;;;5090431;28;20424;-74
2022/11/19 12:53:02;;;;;;;6.35;4.57;;;3.10;99.90;;;;;;5089907;28;20040;-74
2022/11/19 12:55:45;;;;;;;7.10;4.70;;;3.10;99.90;;;;;;5078792;28;20052;-74
2022/11/19 12:58:27;;;;;;;7.05;3.58;;;3.10;99.90;;;;;;5070264;28;20044;-74
2022/11/19 13:01:00;;;;;;;7.07;4.63;;;3.20;99.90;;;;;;5070436;28;20048;-74
2022/11/19 13:03:52;;;;;;;8.00;5.05;;;3.20;99.90;;;;;;5068458;28;20040;-74
2022/11/19 13:06:34;;;;;;;6.20;3.85;;;3.20;99.90;;;;;;5062421;28;20048;-74
2022/11/19 13:09:17;;;;;;;6.28;3.95;;;3.30;99.90;;;;;;5090392;28;20386;-75
2022/11/19 13:11:48;;;;;;;5.80;4.10;;;3.30;99.90;;;;;;5090480;28;20052;-74
2022/11/19 13:14:26;;;;;;;5.47;3.70;;;3.30;99.90;;;;;;5090293;28;20085;-77
2022/11/19 13:16:53;;;;;;;5.43;3.85;;;3.30;99.80;;;;;;5089973;28;20513;-76
2022/11/19 13:19:24;;;;;;;6.30;4.25;;;3.30;99.90;;;;;;5089969;28;20028;-76
2022/11/19 13:22:05;;;;;;;6.05;4.03;;;3.40;99.90;;;;;;5091783;28;20073;-73
2022/11/19 13:24:41;;;;;;;8.43;4.60;;;3.40;99.90;;;;;;5089401;28;20524;-73
2022/11/19 13:27:12;;;;;;;5.53;3.95;;;3.40;99.90;;;;;;5089367;28;20127;-73
2022/11/19 13:29:42;;;;;;;5.93;4.18;;;3.40;99.90;;;;;;5090369;28;20498;-73
2022/11/19 13:32:29;;;;;;;7.55;4.80;;;3.40;99.90;;;;;;5089993;28;20158;-73